Messwerte Hachinohe

Temperatur

Temperatur
°C
1594476000 23.00 23.00 18
1594479600 0.00 0.00 17
1594483200 1.00 1.00 17
1594486800 2.00 2.00 17
1594490400 3.00 3.00
1594494000 4.00 4.00
1594497600 5.00 5.00 17
1594501200 6.00 6.00 17
1594504800 7.00 7.00 16
1594508400 8.00 8.00 16
1594512000 9.00 9.00 16
1594515600 10.00 10.00 16
1594519200 11.00 11.00 16
1594522800 12.00 12.00 17
1594526400 13.00 13.00 17
1594530000 14.00 14.00 17
1594533600 15.00 15.00 18
1594537200 16.00 16.00
1594540800 17.00 17.00
1594544400 18.00 18.00 17
1594548000 19.00 19.00
1594551600 20.00 20.00
1594555200 21.00 21.00 17
1594558800 22.00 22.00

Wir danken unserem Partner:

Aktuellste Messwerte

Wettercharakter
Wetter: wechselnd bewölkt
Temperatur
16 °C
Feuchtigkeit
100 %
Wind
5 km/hWindrichtung: Süd
Luftdruck
1010 hPa
Messzeit: 12. Juli 2020, 23.00Datenquelle: METAR

Weitere Messstationen in der Nähe

Messstation Temperatur Entfernung
Misawa 20 °C 19 km
Aomori 23 °C 70 km
Odate-Noshiro Airport 24 °C 115 km
Hanamaki 19 °C 128 km
Hakodate 20 °C 146 km
Akita 23 °C 148 km
Shonai 23 °C 241 km

Wind

Windrichtung Böen Mittelwind
° km/h km/h
1594476000 23.00 22.00 - 23.00 60° 5
1594479600 0.00 23.00 - 0.00 80° 10
1594483200 1.00 0.00 - 1.00 80° 10
1594486800 2.00 1.00 - 2.00 80° 15
1594490400 3.00 2.00 - 3.00
1594494000 4.00 3.00 - 4.00
1594497600 5.00 4.00 - 5.00 90° 20
1594501200 6.00 5.00 - 6.00 80° 20
1594504800 7.00 6.00 - 7.00 60° 20
1594508400 8.00 7.00 - 8.00 80° 20
1594512000 9.00 8.00 - 9.00 60° 15
1594515600 10.00 9.00 - 10.00 60° 20
1594519200 11.00 10.00 - 11.00 60° 20
1594522800 12.00 11.00 - 12.00 80° 15
1594526400 13.00 12.00 - 13.00 80° 15
1594530000 14.00 13.00 - 14.00 70° 15
1594533600 15.00 14.00 - 15.00 80° 15
1594537200 16.00 15.00 - 16.00
1594540800 17.00 16.00 - 17.00
1594544400 18.00 17.00 - 18.00 60° 10
1594548000 19.00 18.00 - 19.00
1594551600 20.00 19.00 - 20.00
1594555200 21.00 20.00 - 21.00 100° 5
1594558800 22.00 21.00 - 22.00

Ihre Wetterstation

Fehlt Ihre Wetterstation auf unserem Portal?

Schreiben Sie an network@meteonews.ch

Klima

Wann ist es am wärmsten? Wann regnet es am wenigsten? Unsere Klimadaten geben Auskunft.